Terminal Aerodrome Forecast
Issued by NWS Atlanta, GA

Home | Current Version | Previous Version | Text Only | Print | Product List | Glossary On
Versions: 1 2 3 4 5 6 7 8 9 10 11 12 13 14 15 16 17 18 19 20 21 22 23 24 25 26 27 28 29 30 31 32 33 34 35 36 37 38 39 40 41 42 43 44 45 46 47
000
FTUS42 KFFC 222324
TAFATL
TAF
KATL 222324Z 2300/2406 10009KT 4SM -RA BR OVC005
     FM230300 10008KT 2SM -DZ BR OVC003
     FM230800 10008KT 1/2SM -DZ FG OVC002
     FM231500 11008KT 2SM -SHRA BR OVC008
     FM231900 13008KT 6SM -SHRA BR OVC012=

USA.gov is the U.S. government's official web portal to all federal, state and local government web resources and services.